<?xml version="1.0" encoding="UTF-8" standalone="no" ?>
<gpx xmlns="http://www.topografix.com/GPX/1/1" xmlns:xsi="http://www.w3.org/2001/XMLSchema-instance" xsi:schemaLocation="http://www.topografix.com/GPX/1/1 http://www.topografix.com/GPX/1/1/gpx.xsd" version="1.1" creator="VisuGPX - https://www.visugpx.com">
  <metadata>
    <name>Velo</name>
    <desc><![CDATA[idor:10246719_102515280_10794639_12973163_1418743_13428926_12998252_13558460_14716825_14357364_14251590]]></desc>
  </metadata>
  <trk>
    <name><![CDATA[IkeaDom-13426926]]></name>
    <extensions>
      <line xmlns="http://www.topografix.com/GPX/gpx_style/0/2">
        <color>000088</color>
        <width>4</width>
      </line>
    </extensions>
    <trkseg>
      <trkpt lat="47.26764" lon="-1.54509">
        <ele>28</ele>
        <time>2023-11-15T07:51:40Z</time>
      </trkpt>
      <trkpt lat="47.26758" lon="-1.54646">
        <ele>28</ele>
        <time>2023-11-15T07:53:44Z</time>
      </trkpt>
      <trkpt lat="47.26467" lon="-1.54681">
        <ele>19</ele>
        <time>2023-11-15T08:00:14Z</time>
      </trkpt>
      <trkpt lat="47.26211" lon="-1.54981">
        <ele>11</ele>
        <time>2023-11-15T08:07:30Z</time>
      </trkpt>
      <trkpt lat="47.25989" lon="-1.55599">
        <ele>8</ele>
        <time>2023-11-15T08:18:04Z</time>
      </trkpt>
      <trkpt lat="47.2603" lon="-1.55745">
        <ele>13</ele>
        <time>2023-11-15T08:20:27Z</time>
      </trkpt>
      <trkpt lat="47.25803" lon="-1.55718">
        <ele>13</ele>
        <time>2023-11-15T08:25:31Z</time>
      </trkpt>
      <trkpt lat="47.25651" lon="-1.56299">
        <ele>15</ele>
        <time>2023-11-15T08:34:55Z</time>
      </trkpt>
      <trkpt lat="47.25592" lon="-1.56292">
        <ele>20</ele>
        <time>2023-11-15T08:36:14Z</time>
      </trkpt>
      <trkpt lat="47.25404" lon="-1.56427">
        <ele>26</ele>
        <time>2023-11-15T08:40:53Z</time>
      </trkpt>
      <trkpt lat="47.25455" lon="-1.56571">
        <ele>26</ele>
        <time>2023-11-15T08:43:20Z</time>
      </trkpt>
      <trkpt lat="47.25346" lon="-1.56592">
        <ele>29</ele>
        <time>2023-11-15T08:45:47Z</time>
      </trkpt>
      <trkpt lat="47.25264" lon="-1.56781">
        <ele>33</ele>
        <time>2023-11-15T08:49:10Z</time>
      </trkpt>
      <trkpt lat="47.25293" lon="-1.57002">
        <ele>34</ele>
        <time>2023-11-15T08:52:34Z</time>
      </trkpt>
      <trkpt lat="47.25134" lon="-1.57142">
        <ele>37</ele>
        <time>2023-11-15T08:56:41Z</time>
      </trkpt>
      <trkpt lat="47.25309" lon="-1.57618">
        <ele>37</ele>
        <time>2023-11-15T09:04:51Z</time>
      </trkpt>
      <trkpt lat="47.24766" lon="-1.57747">
        <ele>11</ele>
        <time>2023-11-15T09:17:05Z</time>
      </trkpt>
      <trkpt lat="47.24708" lon="-1.57743">
        <ele>11</ele>
        <time>2023-11-15T09:18:23Z</time>
      </trkpt>
      <trkpt lat="47.24601" lon="-1.57991">
        <ele>29</ele>
        <time>2023-11-15T09:22:49Z</time>
      </trkpt>
      <trkpt lat="47.24428" lon="-1.58251">
        <ele>32</ele>
        <time>2023-11-15T09:28:19Z</time>
      </trkpt>
      <trkpt lat="47.24237" lon="-1.58294">
        <ele>37</ele>
        <time>2023-11-15T09:32:36Z</time>
      </trkpt>
      <trkpt lat="47.24067" lon="-1.58436">
        <ele>43</ele>
        <time>2023-11-15T09:36:57Z</time>
      </trkpt>
      <trkpt lat="47.23981" lon="-1.5847">
        <ele>46</ele>
        <time>2023-11-15T09:38:56Z</time>
      </trkpt>
      <trkpt lat="47.2378" lon="-1.58614">
        <ele>47</ele>
        <time>2023-11-15T09:43:54Z</time>
      </trkpt>
      <trkpt lat="47.23528" lon="-1.58803">
        <ele>45</ele>
        <time>2023-11-15T09:50:12Z</time>
      </trkpt>
      <trkpt lat="47.23347" lon="-1.59024">
        <ele>37</ele>
        <time>2023-11-15T09:55:25Z</time>
      </trkpt>
      <trkpt lat="47.23165" lon="-1.59232">
        <ele>26</ele>
        <time>2023-11-15T10:00:33Z</time>
      </trkpt>
      <trkpt lat="47.22942" lon="-1.59736">
        <ele>14</ele>
        <time>2023-11-15T10:09:38Z</time>
      </trkpt>
      <trkpt lat="47.22922" lon="-1.59796">
        <ele>16</ele>
        <time>2023-11-15T10:10:39Z</time>
      </trkpt>
      <trkpt lat="47.22942" lon="-1.60002">
        <ele>20</ele>
        <time>2023-11-15T10:13:47Z</time>
      </trkpt>
      <trkpt lat="47.22971" lon="-1.60343">
        <ele>34</ele>
        <time>2023-11-15T10:18:59Z</time>
      </trkpt>
      <trkpt lat="47.2288" lon="-1.6052">
        <ele>40</ele>
        <time>2023-11-15T10:22:20Z</time>
      </trkpt>
      <trkpt lat="47.22848" lon="-1.60531">
        <ele>41</ele>
        <time>2023-11-15T10:23:04Z</time>
      </trkpt>
      <trkpt lat="47.22933" lon="-1.60825">
        <ele>44</ele>
        <time>2023-11-15T10:27:53Z</time>
      </trkpt>
      <trkpt lat="47.23079" lon="-1.61154">
        <ele>40</ele>
        <time>2023-11-15T10:33:49Z</time>
      </trkpt>
      <trkpt lat="47.23056" lon="-1.61517">
        <ele>40</ele>
        <time>2023-11-15T10:39:20Z</time>
      </trkpt>
      <trkpt lat="47.23026" lon="-1.61681">
        <ele>41</ele>
        <time>2023-11-15T10:41:54Z</time>
      </trkpt>
      <trkpt lat="47.23042" lon="-1.61713">
        <ele>41</ele>
        <time>2023-11-15T10:42:30Z</time>
      </trkpt>
      <trkpt lat="47.23008" lon="-1.61719">
        <ele>40</ele>
        <time>2023-11-15T10:43:15Z</time>
      </trkpt>
      <trkpt lat="47.22884" lon="-1.62078">
        <ele>46</ele>
        <time>2023-11-15T10:49:20Z</time>
      </trkpt>
      <trkpt lat="47.22849" lon="-1.62124">
        <ele>47</ele>
        <time>2023-11-15T10:50:23Z</time>
      </trkpt>
      <trkpt lat="47.22758" lon="-1.62127">
        <ele>49</ele>
        <time>2023-11-15T10:52:24Z</time>
      </trkpt>
      <trkpt lat="47.22748" lon="-1.62141">
        <ele>49</ele>
        <time>2023-11-15T10:52:43Z</time>
      </trkpt>
      <trkpt lat="47.22741" lon="-1.62116">
        <ele>49</ele>
        <time>2023-11-15T10:53:07Z</time>
      </trkpt>
      <trkpt lat="47.22611" lon="-1.62007">
        <ele>50</ele>
        <time>2023-11-15T10:56:27Z</time>
      </trkpt>
      <trkpt lat="47.22563" lon="-1.62121">
        <ele>50</ele>
        <time>2023-11-15T10:58:28Z</time>
      </trkpt>
      <trkpt lat="47.22577" lon="-1.62185">
        <ele>48</ele>
        <time>2023-11-15T10:59:29Z</time>
      </trkpt>
      <trkpt lat="47.22548" lon="-1.62247">
        <ele>48</ele>
        <time>2023-11-15T11:00:38Z</time>
      </trkpt>
      <trkpt lat="47.22508" lon="-1.62242">
        <ele>49</ele>
        <time>2023-11-15T11:01:31Z</time>
      </trkpt>
      <trkpt lat="47.22444" lon="-1.62348">
        <ele>50</ele>
        <time>2023-11-15T11:03:40Z</time>
      </trkpt>
      <trkpt lat="47.2246" lon="-1.62462">
        <ele>48</ele>
        <time>2023-11-15T11:05:25Z</time>
      </trkpt>
      <trkpt lat="47.22511" lon="-1.62603">
        <ele>44</ele>
        <time>2023-11-15T11:07:50Z</time>
      </trkpt>
      <trkpt lat="47.22571" lon="-1.62662">
        <ele>45</ele>
        <time>2023-11-15T11:09:26Z</time>
      </trkpt>
      <trkpt lat="47.22454" lon="-1.62927">
        <ele>42</ele>
        <time>2023-11-15T11:14:13Z</time>
      </trkpt>
      <trkpt lat="47.22267" lon="-1.63045">
        <ele>38</ele>
        <time>2023-11-15T11:18:44Z</time>
      </trkpt>
    </trkseg>
  </trk>
</gpx>